Terminal Aerodrome Forecast
Issued by NWS Cleveland, OH

Home | Current Version | Previous Version | Graphics & Text | Print | Product List | Glossary On
Versions: 1 2 3 4 5 6 7 8 9 10 11 12 13 14 15 16 17 18
454
FTUS41 KCLE 241121
TAFYNG
TAF
KYNG 241121Z 2412/2512 12009KT P6SM VCSH OVC060
      TEMPO 2419/2423 4SM -SHRA BR OVC040
     FM242300 11009KT 5SM -SHRA BR OVC035
      TEMPO 2500/2503 2SM -SHRA BR OVC030
     FM250300 10007KT 5SM -SHRA BR BKN015 OVC030
      TEMPO 2505/2508 BKN008 OVC015
     FM250800 06004KT 5SM -SHRA BR BKN008 OVC015=

USA.gov is the U.S. government's official web portal to all federal, state and local government web resources and services.